sensor_id;sensor_type;location;lat;lon;timestamp;pressure;altitude;pressure_sealevel;temperature;humidity
64544;BME280;50936;51.660;5.616;2022-11-24T00:01:24;99928.25;;;7.87;100.00
64544;BME280;50936;51.660;5.616;2022-11-24T00:03:58;99933.53;;;7.89;100.00
64544;BME280;50936;51.660;5.616;2022-11-24T00:06:28;99932.56;;;7.90;100.00
64544;BME280;50936;51.660;5.616;2022-11-24T00:08:56;99934.53;;;7.88;100.00
64544;BME280;50936;51.660;5.616;2022-11-24T00:11:29;99943.53;;;7.87;100.00
64544;BME280;50936;51.660;5.616;2022-11-24T00:13:57;99942.28;;;7.80;100.00
64544;BME280;50936;51.660;5.616;2022-11-24T00:16:29;99947.88;;;7.77;100.00
64544;BME280;50936;51.660;5.616;2022-11-24T00:18:59;99939.59;;;7.80;100.00
64544;BME280;50936;51.660;5.616;2022-11-24T00:21:29;99945.69;;;7.82;100.00
64544;BME280;50936;51.660;5.616;2022-11-24T00:23:57;99944.00;;;7.81;100.00
64544;BME280;50936;51.660;5.616;2022-11-24T00:26:27;99949.47;;;7.79;100.00
64544;BME280;50936;51.660;5.616;2022-11-24T00:28:59;99946.69;;;7.81;100.00
64544;BME280;50936;51.660;5.616;2022-11-24T00:31:30;99954.75;;;7.81;100.00
64544;BME280;50936;51.660;5.616;2022-11-24T00:34:01;99959.28;;;7.80;100.00
64544;BME280;50936;51.660;5.616;2022-11-24T00:36:31;99962.47;;;7.85;100.00
64544;BME280;50936;51.660;5.616;2022-11-24T00:39:05;99960.97;;;7.81;100.00
64544;BME280;50936;51.660;5.616;2022-11-24T00:41:35;99966.56;;;7.78;100.00
64544;BME280;50936;51.660;5.616;2022-11-24T00:44:03;99970.25;;;7.77;100.00
64544;BME280;50936;51.660;5.616;2022-11-24T00:46:30;99966.81;;;7.75;100.00
64544;BME280;50936;51.660;5.616;2022-11-24T00:48:57;99964.22;;;7.74;100.00
64544;BME280;50936;51.660;5.616;2022-11-24T00:51:27;99962.19;;;7.77;100.00
64544;BME280;50936;51.660;5.616;2022-11-24T00:53:59;99966.56;;;7.78;100.00
64544;BME280;50936;51.660;5.616;2022-11-24T00:56:27;99959.88;;;7.84;100.00
64544;BME280;50936;51.660;5.616;2022-11-24T00:58:55;99969.69;;;7.85;100.00
64544;BME280;50936;51.660;5.616;2022-11-24T01:01:24;99963.47;;;7.84;100.00
64544;BME280;50936;51.660;5.616;2022-11-24T01:03:53;99963.66;;;7.81;100.00
64544;BME280;50936;51.660;5.616;2022-11-24T01:06:24;99957.13;;;7.72;100.00
64544;BME280;50936;51.660;5.616;2022-11-24T01:08:53;99964.69;;;7.67;100.00
64544;BME280;50936;51.660;5.616;2022-11-24T01:11:24;99973.78;;;7.65;100.00
64544;BME280;50936;51.660;5.616;2022-11-24T01:13:56;99981.13;;;7.63;100.00
64544;BME280;50936;51.660;5.616;2022-11-24T01:16:27;99974.16;;;7.60;100.00
64544;BME280;50936;51.660;5.616;2022-11-24T01:18:56;99979.53;;;7.60;100.00
64544;BME280;50936;51.660;5.616;2022-11-24T01:21:23;99984.66;;;7.63;100.00
64544;BME280;50936;51.660;5.616;2022-11-24T01:23:50;99991.56;;;7.67;100.00
64544;BME280;50936;51.660;5.616;2022-11-24T01:26:19;99991.56;;;7.67;100.00
64544;BME280;50936;51.660;5.616;2022-11-24T01:28:52;99988.09;;;7.65;100.00
64544;BME280;50936;51.660;5.616;2022-11-24T01:31:20;99990.25;;;7.60;100.00
64544;BME280;50936;51.660;5.616;2022-11-24T01:33:48;99979.28;;;7.63;100.00
64544;BME280;50936;51.660;5.616;2022-11-24T01:36:15;99986.38;;;7.64;100.00
64544;BME280;50936;51.660;5.616;2022-11-24T01:38:42;99980.81;;;7.67;100.00
64544;BME280;50936;51.660;5.616;2022-11-24T01:43:41;99989.38;;;7.72;100.00
64544;BME280;50936;51.660;5.616;2022-11-24T01:46:20;99990.47;;;7.70;100.00
64544;BME280;50936;51.660;5.616;2022-11-24T01:49:00;100002.31;;;7.67;100.00
64544;BME280;50936;51.660;5.616;2022-11-24T01:51:30;100002.72;;;7.61;100.00
64544;BME280;50936;51.660;5.616;2022-11-24T01:54:04;100002.94;;;7.58;100.00
64544;BME280;50936;51.660;5.616;2022-11-24T01:56:36;100011.13;;;7.57;100.00
64544;BME280;50936;51.660;5.616;2022-11-24T01:59:09;100007.88;;;7.51;100.00
64544;BME280;50936;51.660;5.616;2022-11-24T02:01:39;100013.38;;;7.50;100.00
64544;BME280;50936;51.660;5.616;2022-11-24T02:04:09;100016.25;;;7.47;100.00
64544;BME280;50936;51.660;5.616;2022-11-24T02:06:41;100009.38;;;7.43;100.00
64544;BME280;50936;51.660;5.616;2022-11-24T02:09:23;100009.38;;;7.43;100.00
64544;BME280;50936;51.660;5.616;2022-11-24T02:11:53;100018.41;;;7.42;100.00
64544;BME280;50936;51.660;5.616;2022-11-24T02:14:22;100020.88;;;7.45;100.00
64544;BME280;50936;51.660;5.616;2022-11-24T02:16:50;100020.88;;;7.45;100.00
64544;BME280;50936;51.660;5.616;2022-11-24T02:20:15;100025.94;;;7.49;100.00
64544;BME280;50936;51.660;5.616;2022-11-24T02:22:49;100024.88;;;7.52;100.00
64544;BME280;50936;51.660;5.616;2022-11-24T02:28:16;100037.00;;;7.58;100.00
64544;BME280;50936;51.660;5.616;2022-11-24T02:30:46;100038.84;;;7.57;100.00
64544;BME280;50936;51.660;5.616;2022-11-24T02:33:14;100040.78;;;7.55;100.00
64544;BME280;50936;51.660;5.616;2022-11-24T02:35:42;100046.56;;;7.49;100.00
64544;BME280;50936;51.660;5.616;2022-11-24T02:38:12;100039.69;;;7.45;100.00
64544;BME280;50936;51.660;5.616;2022-11-24T02:40:46;100039.88;;;7.42;100.00
64544;BME280;50936;51.660;5.616;2022-11-24T02:43:18;100041.81;;;7.40;100.00
64544;BME280;50936;51.660;5.616;2022-11-24T02:45:48;100041.81;;;7.40;100.00
64544;BME280;50936;51.660;5.616;2022-11-24T02:48:16;100027.88;;;7.35;100.00
64544;BME280;50936;51.660;5.616;2022-11-24T02:50:43;100039.78;;;7.30;100.00
64544;BME280;50936;51.660;5.616;2022-11-24T02:53:09;100044.19;;;7.31;100.00
64544;BME280;50936;51.660;5.616;2022-11-24T02:55:36;100041.72;;;7.28;100.00
64544;BME280;50936;51.660;5.616;2022-11-24T02:58:03;100038.06;;;7.29;100.00
64544;BME280;50936;51.660;5.616;2022-11-24T03:00:30;100053.44;;;7.27;100.00
64544;BME280;50936;51.660;5.616;2022-11-24T03:02:57;100052.34;;;7.30;100.00
64544;BME280;50936;51.660;5.616;2022-11-24T03:05:24;100049.47;;;7.33;100.00
64544;BME280;50936;51.660;5.616;2022-11-24T03:07:50;100051.81;;;7.38;100.00
64544;BME280;50936;51.660;5.616;2022-11-24T03:10:17;100054.31;;;7.41;100.00
64544;BME280;50936;51.660;5.616;2022-11-24T03:12:44;100056.00;;;7.42;100.00
64544;BME280;50936;51.660;5.616;2022-11-24T03:15:11;100055.06;;;7.43;100.00
64544;BME280;50936;51.660;5.616;2022-11-24T03:17:37;100053.22;;;7.43;100.00
64544;BME280;50936;51.660;5.616;2022-11-24T03:20:04;100059.25;;;7.47;100.00
64544;BME280;50936;51.660;5.616;2022-11-24T03:22:33;100053.66;;;7.50;100.00
64544;BME280;50936;51.660;5.616;2022-11-24T03:25:00;100058.84;;;7.53;100.00
64544;BME280;50936;51.660;5.616;2022-11-24T03:27:29;100060.53;;;7.54;100.00
64544;BME280;50936;51.660;5.616;2022-11-24T03:29:56;100060.53;;;7.54;100.00
64544;BME280;50936;51.660;5.616;2022-11-24T03:32:23;100064.22;;;7.53;100.00
64544;BME280;50936;51.660;5.616;2022-11-24T03:34:49;100065.38;;;7.49;100.00
64544;BME280;50936;51.660;5.616;2022-11-24T03:37:16;100066.34;;;7.48;100.00
64544;BME280;50936;51.660;5.616;2022-11-24T03:39:43;100064.41;;;7.50;100.00
64544;BME280;50936;51.660;5.616;2022-11-24T03:42:10;100066.16;;;7.51;100.00
64544;BME280;50936;51.660;5.616;2022-11-24T03:44:37;100074.72;;;7.56;100.00
64544;BME280;50936;51.660;5.616;2022-11-24T03:47:03;100071.94;;;7.70;100.00
64544;BME280;50936;51.660;5.616;2022-11-24T03:49:30;100076.69;;;7.80;100.00
64544;BME280;50936;51.660;5.616;2022-11-24T03:51:57;100074.53;;;7.85;100.00
64544;BME280;50936;51.660;5.616;2022-11-24T03:54:30;100082.50;;;7.86;100.00
64544;BME280;50936;51.660;5.616;2022-11-24T03:56:57;100084.19;;;7.87;100.00
64544;BME280;50936;51.660;5.616;2022-11-24T03:59:24;100083.16;;;7.90;100.00
64544;BME280;50936;51.660;5.616;2022-11-24T04:01:51;100082.69;;;7.96;100.00
64544;BME280;50936;51.660;5.616;2022-11-24T04:04:18;100085.19;;;7.99;100.00
64544;BME280;50936;51.660;5.616;2022-11-24T04:06:44;100087.66;;;8.02;100.00
64544;BME280;50936;51.660;5.616;2022-11-24T04:09:11;100092.81;;;8.05;100.00
64544;BME280;50936;51.660;5.616;2022-11-24T04:11:38;100086.13;;;8.11;100.00
64544;BME280;50936;51.660;5.616;2022-11-24T04:14:23;100094.09;;;8.13;100.00
64544;BME280;50936;51.660;5.616;2022-11-24T04:16:50;100091.19;;;8.16;100.00
64544;BME280;50936;51.660;5.616;2022-11-24T04:19:16;100091.94;;;8.18;100.00
64544;BME280;50936;51.660;5.616;2022-11-24T04:21:43;100091.94;;;8.18;100.00
64544;BME280;50936;51.660;5.616;2022-11-24T04:24:10;100091.94;;;8.18;100.00
64544;BME280;50936;51.660;5.616;2022-11-24T04:26:37;100101.19;;;8.14;100.00
64544;BME280;50936;51.660;5.616;2022-11-24T04:29:04;100094.09;;;8.13;100.00
64544;BME280;50936;51.660;5.616;2022-11-24T04:31:31;100102.06;;;8.14;100.00
64544;BME280;50936;51.660;5.616;2022-11-24T04:33:58;100099.06;;;8.19;100.00
64544;BME280;50936;51.660;5.616;2022-11-24T04:36:24;100100.75;;;8.20;100.00
64544;BME280;50936;51.660;5.616;2022-11-24T04:38:52;100106.13;;;8.20;100.00
64544;BME280;50936;51.660;5.616;2022-11-24T04:41:39;100113.25;;;8.21;100.00
64544;BME280;50936;51.660;5.616;2022-11-24T04:44:06;100132.50;;;8.15;100.00
64544;BME280;50936;51.660;5.616;2022-11-24T04:46:32;100121.84;;;8.00;100.00
64544;BME280;50936;51.660;5.616;2022-11-24T04:49:00;100119.50;;;7.83;100.00
64544;BME280;50936;51.660;5.616;2022-11-24T04:51:27;100124.41;;;7.63;100.00
64544;BME280;50936;51.660;5.616;2022-11-24T04:53:53;100139.66;;;7.50;100.00
64544;BME280;50936;51.660;5.616;2022-11-24T04:56:20;100138.97;;;7.33;100.00
64544;BME280;50936;51.660;5.616;2022-11-24T04:58:47;100153.00;;;7.24;100.00
64544;BME280;50936;51.660;5.616;2022-11-24T05:01:15;100159.75;;;7.17;100.00
64544;BME280;50936;51.660;5.616;2022-11-24T05:03:41;100158.44;;;7.10;100.00
64544;BME280;50936;51.660;5.616;2022-11-24T05:06:08;100165.06;;;7.04;100.00
64544;BME280;50936;51.660;5.616;2022-11-24T05:08:35;100164.22;;;7.04;100.00
64544;BME280;50936;51.660;5.616;2022-11-24T05:11:05;100167.84;;;7.03;100.00
64544;BME280;50936;51.660;5.616;2022-11-24T05:13:32;100164.41;;;7.01;100.00
64544;BME280;50936;51.660;5.616;2022-11-24T05:15:59;100168.06;;;7.00;100.00
64544;BME280;50936;51.660;5.616;2022-11-24T05:18:27;100176.00;;;7.01;100.00
64544;BME280;50936;51.660;5.616;2022-11-24T05:20:54;100174.19;;;7.02;100.00
64544;BME280;50936;51.660;5.616;2022-11-24T05:23:21;100182.03;;;7.05;100.00
64544;BME280;50936;51.660;5.616;2022-11-24T05:25:48;100175.72;;;7.06;100.00
64544;BME280;50936;51.660;5.616;2022-11-24T05:28:16;100182.78;;;7.07;100.00
64544;BME280;50936;51.660;5.616;2022-11-24T05:30:44;100190.66;;;7.10;100.00
64544;BME280;50936;51.660;5.616;2022-11-24T05:33:13;100194.09;;;7.12;100.00
64544;BME280;50936;51.660;5.616;2022-11-24T05:35:45;100193.16;;;7.13;100.00
64544;BME280;50936;51.660;5.616;2022-11-24T05:38:15;100186.72;;;7.16;100.00
64544;BME280;50936;51.660;5.616;2022-11-24T05:40:43;100188.53;;;7.15;100.00
64544;BME280;50936;51.660;5.616;2022-11-24T05:43:11;100195.53;;;7.18;100.00
64544;BME280;50936;51.660;5.616;2022-11-24T05:45:39;100198.88;;;7.21;100.00
64544;BME280;50936;51.660;5.616;2022-11-24T05:48:08;100201.38;;;7.24;100.00
64544;BME280;50936;51.660;5.616;2022-11-24T05:50:38;100205.78;;;7.25;100.00
64544;BME280;50936;51.660;5.616;2022-11-24T05:53:10;100208.56;;;7.24;100.00
64544;BME280;50936;51.660;5.616;2022-11-24T05:55:40;100212.88;;;7.26;100.00
64544;BME280;50936;51.660;5.616;2022-11-24T05:58:08;100220.81;;;7.28;100.00
64544;BME280;50936;51.660;5.616;2022-11-24T06:00:35;100233.19;;;7.30;100.00
64544;BME280;50936;51.660;5.616;2022-11-24T06:03:03;100230.50;;;7.30;100.00
64544;BME280;50936;51.660;5.616;2022-11-24T06:05:30;100242.97;;;7.31;100.00
64544;BME280;50936;51.660;5.616;2022-11-24T06:07:58;100237.41;;;7.35;100.00
64544;BME280;50936;51.660;5.616;2022-11-24T06:10:26;100246.22;;;7.37;100.00
64544;BME280;50936;51.660;5.616;2022-11-24T06:12:53;100240.63;;;7.40;100.00
64544;BME280;50936;51.660;5.616;2022-11-24T06:15:20;100247.75;;;7.41;100.00
64544;BME280;50936;51.660;5.616;2022-11-24T06:17:54;100246.66;;;7.43;100.00
64544;BME280;50936;51.660;5.616;2022-11-24T06:20:23;100259.25;;;7.43;100.00
64544;BME280;50936;51.660;5.616;2022-11-24T06:22:57;100255.50;;;7.45;100.00
64544;BME280;50936;51.660;5.616;2022-11-24T06:25:26;100265.94;;;7.50;100.00
64544;BME280;50936;51.660;5.616;2022-11-24T06:27:53;100271.31;;;7.50;100.00
64544;BME280;50936;51.660;5.616;2022-11-24T06:30:20;100275.09;;;7.47;100.00
64544;BME280;50936;51.660;5.616;2022-11-24T06:32:47;100282.16;;;7.48;100.00
64544;BME280;50936;51.660;5.616;2022-11-24T06:35:15;100286.28;;;7.54;100.00
64544;BME280;50936;51.660;5.616;2022-11-24T06:37:42;100295.09;;;7.56;100.00
64544;BME280;50936;51.660;5.616;2022-11-24T06:40:11;100302.19;;;7.57;100.00
64544;BME280;50936;51.660;5.616;2022-11-24T06:42:38;100301.13;;;7.60;100.00
64544;BME280;50936;51.660;5.616;2022-11-24T06:45:05;100294.72;;;7.62;100.00
64544;BME280;50936;51.660;5.616;2022-11-24T06:47:35;100305.22;;;7.65;100.00
64544;BME280;50936;51.660;5.616;2022-11-24T06:50:03;100321.38;;;7.65;100.00
64544;BME280;50936;51.660;5.616;2022-11-24T06:52:30;100318.59;;;7.67;100.00
64544;BME280;50936;51.660;5.616;2022-11-24T06:54:57;100319.56;;;7.66;100.00
64544;BME280;50936;51.660;5.616;2022-11-24T06:57:23;100325.78;;;7.66;100.00
64544;BME280;50936;51.660;5.616;2022-11-24T06:59:51;100333.84;;;7.66;100.00
64544;BME280;50936;51.660;5.616;2022-11-24T07:02:18;100342.69;;;7.68;100.00
64544;BME280;50936;51.660;5.616;2022-11-24T07:04:45;100349.66;;;7.71;100.00
64544;BME280;50936;51.660;5.616;2022-11-24T07:07:12;100356.69;;;7.74;100.00
64544;BME280;50936;51.660;5.616;2022-11-24T07:09:39;100362.06;;;7.74;100.00
64544;BME280;50936;51.660;5.616;2022-11-24T07:12:05;100364.00;;;7.71;100.00
64544;BME280;50936;51.660;5.616;2022-11-24T07:14:32;100376.44;;;7.72;100.00
64544;BME280;50936;51.660;5.616;2022-11-24T07:17:00;100381.16;;;7.69;100.00
64544;BME280;50936;51.660;5.616;2022-11-24T07:19:28;100377.03;;;7.63;100.00
64544;BME280;50936;51.660;5.616;2022-11-24T07:21:55;100379.81;;;7.62;100.00
64544;BME280;50936;51.660;5.616;2022-11-24T07:24:23;100393.41;;;7.60;100.00
64544;BME280;50936;51.660;5.616;2022-11-24T07:26:50;100389.91;;;7.58;100.00
64544;BME280;50936;51.660;5.616;2022-11-24T07:29:17;100395.28;;;7.58;100.00
64544;BME280;50936;51.660;5.616;2022-11-24T07:31:44;100405.09;;;7.59;100.00
64544;BME280;50936;51.660;5.616;2022-11-24T07:34:11;100406.03;;;7.58;100.00
64544;BME280;50936;51.660;5.616;2022-11-24T07:36:41;100404.34;;;7.57;100.00
64544;BME280;50936;51.660;5.616;2022-11-24T07:39:08;100407.88;;;7.58;100.00
64544;BME280;50936;51.660;5.616;2022-11-24T07:41:35;100410.56;;;7.58;100.00
64544;BME280;50936;51.660;5.616;2022-11-24T07:44:02;100412.31;;;7.59;100.00
64544;BME280;50936;51.660;5.616;2022-11-24T07:46:29;100419.59;;;7.57;100.00
64544;BME280;50936;51.660;5.616;2022-11-24T07:48:55;100431.22;;;7.57;100.00
64544;BME280;50936;51.660;5.616;2022-11-24T07:51:22;100427.53;;;7.58;100.00
64544;BME280;50936;51.660;5.616;2022-11-24T07:53:49;100438.28;;;7.58;100.00
64544;BME280;50936;51.660;5.616;2022-11-24T07:56:16;100438.28;;;7.58;100.00
64544;BME280;50936;51.660;5.616;2022-11-24T07:58:43;100453.38;;;7.61;100.00
64544;BME280;50936;51.660;5.616;2022-11-24T08:01:18;100453.38;;;7.61;100.00
64544;BME280;50936;51.660;5.616;2022-11-24T08:03:45;100452.53;;;7.60;100.00
64544;BME280;50936;51.660;5.616;2022-11-24T08:06:13;100465.16;;;7.58;100.00
64544;BME280;50936;51.660;5.616;2022-11-24T08:08:53;100462.59;;;7.57;100.00
64544;BME280;50936;51.660;5.616;2022-11-24T08:11:20;100467.31;;;7.53;100.00
64544;BME280;50936;51.660;5.616;2022-11-24T08:13:47;100473.63;;;7.52;100.00
64544;BME280;50936;51.660;5.616;2022-11-24T08:16:16;100476.31;;;7.52;100.00
64544;BME280;50936;51.660;5.616;2022-11-24T08:18:49;100482.66;;;7.51;100.00
64544;BME280;50936;51.660;5.616;2022-11-24T08:21:18;100486.22;;;7.51;100.00
64544;BME280;50936;51.660;5.616;2022-11-24T08:23:45;100487.25;;;7.49;100.00
64544;BME280;50936;51.660;5.616;2022-11-24T08:26:14;100492.81;;;7.46;100.00
64544;BME280;50936;51.660;5.616;2022-11-24T08:28:45;100497.31;;;7.45;100.00
64544;BME280;50936;51.660;5.616;2022-11-24T08:31:15;100501.66;;;7.48;100.00
64544;BME280;50936;51.660;5.616;2022-11-24T08:33:46;100508.75;;;7.49;100.00
64544;BME280;50936;51.660;5.616;2022-11-24T08:36:15;100508.75;;;7.49;100.00
64544;BME280;50936;51.660;5.616;2022-11-24T08:38:44;100507.69;;;7.51;100.00
64544;BME280;50936;51.660;5.616;2022-11-24T08:41:15;100513.75;;;7.55;100.00
64544;BME280;50936;51.660;5.616;2022-11-24T08:43:43;100522.59;;;7.57;100.00
64544;BME280;50936;51.660;5.616;2022-11-24T08:46:12;100525.94;;;7.61;100.00
64544;BME280;50936;51.660;5.616;2022-11-24T08:48:48;100529.41;;;7.63;100.00
64544;BME280;50936;51.660;5.616;2022-11-24T08:51:22;100539.97;;;7.66;100.00
64544;BME280;50936;51.660;5.616;2022-11-24T08:53:58;100541.59;;;7.68;100.00
64544;BME280;50936;51.660;5.616;2022-11-24T08:56:29;100542.25;;;7.72;100.00
64544;BME280;50936;51.660;5.616;2022-11-24T08:58:58;100540.34;;;7.74;100.00
64544;BME280;50936;51.660;5.616;2022-11-24T09:01:26;100547.53;;;7.74;100.00
64544;BME280;50936;51.660;5.616;2022-11-24T09:03:53;100543.59;;;7.79;100.00
64544;BME280;50936;51.660;5.616;2022-11-24T09:06:23;100555.03;;;7.83;100.00
64544;BME280;50936;51.660;5.616;2022-11-24T09:08:53;100553.13;;;7.85;100.00
64544;BME280;50936;51.660;5.616;2022-11-24T09:11:21;100561.59;;;7.93;100.00
64544;BME280;50936;51.660;5.616;2022-11-24T09:13:50;100569.34;;;7.98;100.00
64544;BME280;50936;51.660;5.616;2022-11-24T09:16:21;100568.28;;;8.00;100.00
64544;BME280;50936;51.660;5.616;2022-11-24T09:19:00;100574.22;;;8.05;100.00
64544;BME280;50936;51.660;5.616;2022-11-24T09:21:31;100575.00;;;8.07;100.00
64544;BME280;50936;51.660;5.616;2022-11-24T09:24:05;100572.88;;;8.13;100.00
64544;BME280;50936;51.660;5.616;2022-11-24T09:26:36;100579.91;;;8.15;100.00
64544;BME280;50936;51.660;5.616;2022-11-24T09:29:11;100580.59;;;8.19;100.00
64544;BME280;50936;51.660;5.616;2022-11-24T09:31:39;100585.66;;;8.23;100.00
64544;BME280;50936;51.660;5.616;2022-11-24T09:34:09;100591.69;;;8.27;100.00
64544;BME280;50936;51.660;5.616;2022-11-24T09:36:40;100602.84;;;8.35;100.00
64544;BME280;50936;51.660;5.616;2022-11-24T09:39:09;100595.94;;;8.45;100.00
64544;BME280;50936;51.660;5.616;2022-11-24T09:50:37;100607.22;;;9.19;100.00
64544;BME280;50936;51.660;5.616;2022-11-24T09:53:09;100613.41;;;9.21;100.00
64544;BME280;50936;51.660;5.616;2022-11-24T09:55:46;100617.84;;;9.35;100.00
64544;BME280;50936;51.660;5.616;2022-11-24T09:58:29;100635.53;;;9.52;100.00
64544;BME280;50936;51.660;5.616;2022-11-24T10:00:59;100645.28;;;9.68;100.00
64544;BME280;50936;51.660;5.616;2022-11-24T10:03:49;100645.31;;;9.80;100.00
64544;BME280;50936;51.660;5.616;2022-11-24T10:27:43;100665.59;;;9.86;100.00
64544;BME280;50936;51.660;5.616;2022-11-24T10:30:22;100674.00;;;10.07;100.00
64544;BME280;50936;51.660;5.616;2022-11-24T10:33:15;100665.91;;;10.20;100.00
64544;BME280;50936;51.660;5.616;2022-11-24T10:36:02;100672.75;;;10.38;100.00
64544;BME280;50936;51.660;5.616;2022-11-24T10:38:42;100671.69;;;10.41;100.00
64544;BME280;50936;51.660;5.616;2022-11-24T10:41:25;100678.59;;;10.32;100.00
64544;BME280;50936;51.660;5.616;2022-11-24T10:44:17;100679.44;;;10.46;100.00
64544;BME280;50936;51.660;5.616;2022-11-24T10:46:43;100683.22;;;10.56;100.00
64544;BME280;50936;51.660;5.616;2022-11-24T10:49:17;100685.44;;;10.62;100.00
64544;BME280;50936;51.660;5.616;2022-11-24T10:52:01;100687.19;;;10.63;100.00
64544;BME280;50936;51.660;5.616;2022-11-24T10:54:33;100685.69;;;10.59;100.00
64544;BME280;50936;51.660;5.616;2022-11-24T10:57:01;100682.19;;;10.83;100.00
64544;BME280;50936;51.660;5.616;2022-11-24T10:59:36;100683.22;;;10.93;100.00
64544;BME280;50936;51.660;5.616;2022-11-24T11:02:42;100680.63;;;10.91;100.00
64544;BME280;50936;51.660;5.616;2022-11-24T11:08:13;100676.03;;;11.17;100.00
64544;BME280;50936;51.660;5.616;2022-11-24T11:10:42;100686.66;;;11.32;100.00
64544;BME280;50936;51.660;5.616;2022-11-24T11:13:27;100691.31;;;11.54;100.00
64544;BME280;50936;51.660;5.616;2022-11-24T11:15:57;100685.31;;;11.62;99.95
64544;BME280;50936;51.660;5.616;2022-11-24T11:18:30;100684.44;;;11.61;100.00
64544;BME280;50936;51.660;5.616;2022-11-24T11:21:00;100675.50;;;11.72;99.73
64544;BME280;50936;51.660;5.616;2022-11-24T11:23:35;100683.38;;;11.75;98.93
64544;BME280;50936;51.660;5.616;2022-11-24T11:26:29;100675.56;;;11.83;97.77
64544;BME280;50936;51.660;5.616;2022-11-24T11:32:01;100675.28;;;11.86;97.41
64544;BME280;50936;51.660;5.616;2022-11-24T11:35:01;100680.97;;;11.83;97.54
64544;BME280;50936;51.660;5.616;2022-11-24T11:37:30;100675.41;;;11.85;96.04
64544;BME280;50936;51.660;5.616;2022-11-24T11:39:59;100678.25;;;11.83;96.25
64544;BME280;50936;51.660;5.616;2022-11-24T11:45:25;100679.31;;;12.16;96.83
64544;BME280;50936;51.660;5.616;2022-11-24T11:48:11;100683.03;;;12.26;95.34
64544;BME280;50936;51.660;5.616;2022-11-24T11:50:48;100688.34;;;12.28;95.64
64544;BME280;50936;51.660;5.616;2022-11-24T11:57:05;100681.94;;;12.40;94.98
64544;BME280;50936;51.660;5.616;2022-11-24T12:00:00;100689.19;;;12.40;94.96
64544;BME280;50936;51.660;5.616;2022-11-24T12:18:24;100696.72;;;12.47;94.07
64544;BME280;50936;51.660;5.616;2022-11-24T12:34:14;100680.91;;;12.98;87.88
64544;BME280;50936;51.660;5.616;2022-11-24T12:48:40;100709.41;;;12.81;89.04
64544;BME280;50936;51.660;5.616;2022-11-24T12:51:18;100701.28;;;12.81;88.48
64544;BME280;50936;51.660;5.616;2022-11-24T12:53:49;100701.25;;;12.92;88.23
64544;BME280;50936;51.660;5.616;2022-11-24T12:56:23;100710.09;;;13.05;87.32
64544;BME280;50936;51.660;5.616;2022-11-24T12:59:14;100705.41;;;13.19;85.57
64544;BME280;50936;51.660;5.616;2022-11-24T13:02:17;100710.56;;;13.22;85.25
64544;BME280;50936;51.660;5.616;2022-11-24T13:08:02;100705.53;;;13.17;86.50
64544;BME280;50936;51.660;5.616;2022-11-24T13:10:33;100702.22;;;13.14;87.15
64544;BME280;50936;51.660;5.616;2022-11-24T13:14:01;100708.25;;;13.17;86.39
64544;BME280;50936;51.660;5.616;2022-11-24T13:16:56;100719.94;;;13.18;85.40
64544;BME280;50936;51.660;5.616;2022-11-24T13:19:45;100724.84;;;13.24;86.58
64544;BME280;50936;51.660;5.616;2022-11-24T13:22:21;100715.50;;;13.28;84.74
64544;BME280;50936;51.660;5.616;2022-11-24T13:25:13;100714.00;;;13.24;85.06
64544;BME280;50936;51.660;5.616;2022-11-24T13:27:46;100700.06;;;13.28;85.39
64544;BME280;50936;51.660;5.616;2022-11-24T13:38:51;100696.22;;;13.42;84.36
64544;BME280;50936;51.660;5.616;2022-11-24T13:44:27;100695.97;;;13.45;85.12
64544;BME280;50936;51.660;5.616;2022-11-24T13:52:52;100707.84;;;13.22;85.91
64544;BME280;50936;51.660;5.616;2022-11-24T13:55:29;100688.78;;;13.12;87.22
64544;BME280;50936;51.660;5.616;2022-11-24T13:58:22;100701.31;;;13.13;87.81
64544;BME280;50936;51.660;5.616;2022-11-24T14:03:58;100683.25;;;13.02;88.86
64544;BME280;50936;51.660;5.616;2022-11-24T14:09:48;100682.19;;;12.82;88.62
64544;BME280;50936;51.660;5.616;2022-11-24T14:12:24;100686.25;;;12.65;90.06
64544;BME280;50936;51.660;5.616;2022-11-24T14:14:53;100687.25;;;12.64;91.03
64544;BME280;50936;51.660;5.616;2022-11-24T14:17:38;100682.19;;;12.60;90.71
64544;BME280;50936;51.660;5.616;2022-11-24T14:20:25;100689.69;;;12.45;91.36
64544;BME280;50936;51.660;5.616;2022-11-24T14:22:53;100682.28;;;12.24;92.63
64544;BME280;50936;51.660;5.616;2022-11-24T14:25:30;100676.38;;;12.08;94.37
64544;BME280;50936;51.660;5.616;2022-11-24T14:28:00;100679.78;;;11.99;95.33
64544;BME280;50936;51.660;5.616;2022-11-24T14:30:27;100670.94;;;11.97;95.98
64544;BME280;50936;51.660;5.616;2022-11-24T14:32:58;100668.69;;;11.90;95.88
64544;BME280;50936;51.660;5.616;2022-11-24T14:35:31;100666.19;;;11.76;97.02
64544;BME280;50936;51.660;5.616;2022-11-24T14:38:01;100667.59;;;11.58;98.15
64544;BME280;50936;51.660;5.616;2022-11-24T14:40:52;100671.34;;;11.44;99.46
64544;BME280;50936;51.660;5.616;2022-11-24T14:43:29;100664.25;;;11.30;100.00
64544;BME280;50936;51.660;5.616;2022-11-24T14:45:58;100667.44;;;11.24;100.00
64544;BME280;50936;51.660;5.616;2022-11-24T14:48:38;100668.13;;;11.14;100.00
64544;BME280;50936;51.660;5.616;2022-11-24T14:51:25;100678.88;;;11.03;100.00
64544;BME280;50936;51.660;5.616;2022-11-24T14:54:00;100683.88;;;10.96;100.00
64544;BME280;50936;51.660;5.616;2022-11-24T14:56:35;100687.13;;;10.89;100.00
64544;BME280;50936;51.660;5.616;2022-11-24T14:59:21;100680.91;;;10.75;100.00
64544;BME280;50936;51.660;5.616;2022-11-24T15:01:50;100689.34;;;10.71;100.00
64544;BME280;50936;51.660;5.616;2022-11-24T15:04:25;100688.78;;;10.66;100.00
64544;BME280;50936;51.660;5.616;2022-11-24T15:07:25;100695.84;;;10.55;100.00
64544;BME280;50936;51.660;5.616;2022-11-24T15:10:02;100698.22;;;10.47;100.00